Time;durP1;ratioP1;P1;durP2;ratioP2;P2;SDS_P1;SDS_P2;PMS_P1;PMS_P2;Temp;Humidity;BMP_temperature;BMP_pressure;BME280_temperature;BME280_humidity;BME280_pressure;Samples;Min_cycle;Max_cycle;Signal;HPM_P1;HPM_P2
2021/12/05 00:23:25;;;;;;;10.23;2.50;;;4.90;99.90;;;;;;5094947;28;20184;-60
2021/12/05 00:25:54;;;;;;;11.90;2.70;;;4.90;99.90;;;;;;5073741;28;20200;-60
2021/12/05 00:49:18;;;;;;;8.37;2.40;;;4.80;99.90;;;;;;5074678;28;20187;-59
2021/12/05 01:08:43;;;;;;;5.30;2.60;;;4.80;99.90;;;;;;5081748;28;20229;-60
2021/12/05 01:14:24;;;;;;;3.87;2.37;;;4.80;99.90;;;;;;5092294;28;20181;-60
2021/12/05 01:16:38;;;;;;;5.43;2.73;;;4.70;99.90;;;;;;5082042;28;20196;-60
2021/12/05 01:19:07;;;;;;;11.80;2.93;;;4.80;99.90;;;;;;5090065;28;20181;-59
2021/12/05 01:21:34;;;;;;;4.20;2.83;;;4.80;99.90;;;;;;5075133;28;20181;-60
2021/12/05 01:24:20;;;;;;;5.53;2.20;;;4.90;99.90;;;;;;5088621;28;20184;-60
2021/12/05 01:31:54;;;;;;;4.27;2.60;;;5.20;99.90;;;;;;5075552;28;20571;-60
2021/12/05 01:39:57;;;;;;;6.30;2.80;;;5.30;99.90;;;;;;5081959;28;20231;-61
2021/12/05 01:56:04;;;;;;;3.57;3.27;;;5.30;99.90;;;;;;5062573;28;20224;-61
2021/12/05 02:32:15;;;;;;;5.70;3.67;;;5.30;99.90;;;;;;5085551;28;20220;-60
2021/12/05 02:42:58;;;;;;;8.73;3.60;;;5.10;99.90;;;;;;5073156;28;20594;-60
2021/12/05 02:45:25;;;;;;;6.77;4.43;;;5.20;99.90;;;;;;5073726;28;20176;-60
2021/12/05 02:47:53;;;;;;;11.10;3.63;;;5.20;99.90;;;;;;5066944;28;20181;-60
2021/12/05 02:50:21;;;;;;;7.30;4.30;;;5.20;99.90;;;;;;5086101;28;20182;-60
2021/12/05 02:52:48;;;;;;;4.77;3.63;;;5.20;99.90;;;;;;5074725;28;20296;-61
2021/12/05 02:55:29;;;;;;;3.93;3.47;;;5.30;99.90;;;;;;5060757;28;20242;-60
2021/12/05 02:58:13;;;;;;;9.70;4.07;;;5.30;99.90;;;;;;5080789;28;20591;-60
2021/12/05 03:00:44;;;;;;;2.70;2.47;;;5.30;99.90;;;;;;5064272;28;20230;-64
2021/12/05 03:03:18;;;;;;;4.10;2.50;;;5.30;99.90;;;;;;5083618;28;20279;-60
2021/12/05 03:05:53;;;;;;;3.43;3.10;;;5.40;99.90;;;;;;5081590;28;20185;-62
2021/12/05 03:08:20;;;;;;;4.83;2.90;;;5.40;99.90;;;;;;5084606;28;20667;-61
2021/12/05 03:10:47;;;;;;;4.63;2.60;;;5.50;99.90;;;;;;5055393;28;20182;-61
2021/12/05 03:13:12;;;;;;;2.90;2.50;;;5.50;99.90;;;;;;5092446;28;20228;-60
2021/12/05 03:15:38;;;;;;;2.30;2.03;;;5.50;99.90;;;;;;5056761;28;20346;-61
2021/12/05 03:18:04;;;;;;;4.47;2.23;;;5.50;99.90;;;;;;5039778;28;20195;-61
2021/12/05 03:20:30;;;;;;;3.70;1.80;;;5.60;99.90;;;;;;5064378;28;20689;-61
2021/12/05 03:22:56;;;;;;;10.00;2.53;;;5.60;99.90;;;;;;5068998;28;20196;-60
2021/12/05 03:25:22;;;;;;;2.23;2.03;;;5.40;99.90;;;;;;5064277;28;20192;-60
2021/12/05 03:27:49;;;;;;;3.63;2.00;;;5.50;99.90;;;;;;5085996;28;20243;-60
2021/12/05 03:30:19;;;;;;;4.73;2.10;;;5.50;99.90;;;;;;5073657;28;20188;-64
2021/12/05 03:32:48;;;;;;;4.70;2.37;;;5.60;99.90;;;;;;5070440;28;20210;-60
2021/12/05 03:35:14;;;;;;;3.83;3.13;;;5.60;99.90;;;;;;5069399;28;20652;-62
2021/12/05 03:37:40;;;;;;;4.23;2.40;;;5.50;99.90;;;;;;5049040;28;20195;-61
2021/12/05 03:40:08;;;;;;;2.83;2.53;;;5.40;99.90;;;;;;5054210;28;20178;-61
2021/12/05 03:42:36;;;;;;;3.13;2.77;;;5.30;99.90;;;;;;5081602;28;20191;-62
2021/12/05 03:45:05;;;;;;;5.93;2.50;;;5.40;99.90;;;;;;5053278;28;20177;-61
2021/12/05 03:47:31;;;;;;;2.70;2.50;;;5.30;99.90;;;;;;5083946;28;20648;-61
2021/12/05 03:49:57;;;;;;;4.57;2.60;;;5.30;99.90;;;;;;5073367;28;20180;-61
2021/12/05 03:52:23;;;;;;;4.20;3.57;;;5.30;99.90;;;;;;5091658;28;20196;-61
2021/12/05 03:54:49;;;;;;;3.40;2.80;;;5.30;99.90;;;;;;5094245;28;20192;-61
2021/12/05 03:57:15;;;;;;;6.73;3.10;;;5.30;99.90;;;;;;5076306;28;20577;-61
2021/12/05 03:59:41;;;;;;;3.57;3.00;;;5.30;99.90;;;;;;5063844;28;20260;-61
2021/12/05 04:02:08;;;;;;;6.83;3.23;;;5.20;99.90;;;;;;5056357;28;20271;-61
2021/12/05 04:04:34;;;;;;;3.60;2.83;;;5.20;99.90;;;;;;5075364;28;20199;-60
2021/12/05 04:07:01;;;;;;;5.03;4.27;;;5.30;99.90;;;;;;5064395;28;20677;-61
2021/12/05 04:09:27;;;;;;;3.80;3.40;;;5.30;99.90;;;;;;5076042;28;20653;-61
2021/12/05 04:12:01;;;;;;;7.97;5.13;;;5.20;99.90;;;;;;5076609;28;20290;-61
2021/12/05 04:14:38;;;;;;;7.43;4.87;;;5.30;99.90;;;;;;5082533;28;20176;-61
2021/12/05 04:17:07;;;;;;;5.07;4.17;;;5.20;99.90;;;;;;5094815;28;20180;-61
2021/12/05 04:19:33;;;;;;;9.73;5.60;;;5.30;99.90;;;;;;5087558;28;20174;-60
2021/12/05 04:21:59;;;;;;;7.67;4.60;;;5.20;99.90;;;;;;5076389;28;20266;-60
2021/12/05 04:24:25;;;;;;;5.00;4.33;;;5.20;99.90;;;;;;5093689;28;20216;-60
2021/12/05 04:26:51;;;;;;;11.70;5.20;;;5.20;99.90;;;;;;5093185;28;20180;-61
2021/12/05 04:29:17;;;;;;;7.77;4.73;;;5.10;99.90;;;;;;5074012;28;20185;-61
2021/12/05 04:31:43;;;;;;;7.73;4.67;;;5.20;99.90;;;;;;5076301;28;20201;-61
2021/12/05 04:34:09;;;;;;;9.87;6.27;;;5.20;99.90;;;;;;5064247;28;20273;-59
2021/12/05 04:36:35;;;;;;;6.27;4.37;;;5.20;99.90;;;;;;5091337;28;20181;-60
2021/12/05 04:39:02;;;;;;;9.00;4.70;;;5.20;99.90;;;;;;5092002;28;20192;-60
2021/12/05 04:41:28;;;;;;;7.77;5.13;;;5.20;99.90;;;;;;5073337;28;20192;-60
2021/12/05 04:43:54;;;;;;;6.77;5.00;;;5.20;99.90;;;;;;5067647;28;20184;-60
2021/12/05 04:46:23;;;;;;;6.80;4.93;;;5.20;99.90;;;;;;5091116;28;20583;-61
2021/12/05 04:48:52;;;;;;;16.77;6.10;;;5.20;99.90;;;;;;5076666;28;20212;-61
2021/12/05 04:51:21;;;;;;;6.90;5.47;;;5.30;99.90;;;;;;5090624;28;20196;-61
2021/12/05 04:53:47;;;;;;;9.53;6.27;;;5.30;99.90;;;;;;5094116;28;20649;-61
2021/12/05 04:56:13;;;;;;;8.90;5.83;;;5.30;99.90;;;;;;5086587;28;20195;-60
2021/12/05 04:58:39;;;;;;;6.30;5.33;;;5.20;99.90;;;;;;5075977;28;20208;-60
2021/12/05 05:01:06;;;;;;;8.37;4.93;;;5.30;99.90;;;;;;5088890;28;20194;-60
2021/12/05 05:03:33;;;;;;;8.87;4.93;;;5.40;99.90;;;;;;5075925;28;20241;-61
2021/12/05 05:06:09;;;;;;;8.40;5.73;;;5.40;99.90;;;;;;5055071;28;20181;-60
2021/12/05 05:08:35;;;;;;;10.43;5.13;;;5.40;99.90;;;;;;5090385;28;20569;-61
2021/12/05 05:11:05;;;;;;;5.27;4.50;;;5.50;99.90;;;;;;5075877;28;20196;-61
2021/12/05 05:13:32;;;;;;;9.80;6.10;;;5.40;99.90;;;;;;5092500;28;20184;-60
2021/12/05 05:15:58;;;;;;;11.07;6.00;;;5.40;99.90;;;;;;5073542;28;20644;-61
2021/12/05 05:18:28;;;;;;;8.73;6.03;;;5.50;99.90;;;;;;5094059;28;20188;-61
2021/12/05 05:21:39;;;;;;;11.27;6.60;;;5.60;99.90;;;;;;5063510;28;20187;-60
2021/12/05 05:29:33;;;;;;;16.47;7.03;;;5.50;99.90;;;;;;5086446;28;20312;-61
2021/12/05 05:40:22;;;;;;;9.30;5.53;;;5.20;99.90;;;;;;5070117;28;20660;-61
2021/12/05 05:50:36;;;;;;;10.03;5.93;;;5.30;99.90;;;;;;5074181;28;20520;-60
2021/12/05 05:53:02;;;;;;;9.63;6.23;;;5.30;99.90;;;;;;5089596;28;20218;-62
2021/12/05 05:55:28;;;;;;;9.00;6.27;;;5.30;99.90;;;;;;5071654;28;20204;-60
2021/12/05 06:00:34;;;;;;;9.50;5.10;;;5.30;99.90;;;;;;5064610;28;20185;-60
2021/12/05 06:03:22;;;;;;;11.43;5.17;;;5.30;99.90;;;;;;5087085;28;20177;-61
2021/12/05 06:06:09;;;;;;;10.50;5.77;;;5.30;99.90;;;;;;5085595;28;20290;-61
2021/12/05 06:08:37;;;;;;;7.27;5.10;;;5.40;99.90;;;;;;5058013;28;20571;-62
2021/12/05 06:11:09;;;;;;;6.70;4.97;;;5.40;99.90;;;;;;5089171;28;20200;-60
2021/12/05 06:13:39;;;;;;;6.30;4.77;;;5.50;99.90;;;;;;5092975;28;20188;-61
2021/12/05 06:16:10;;;;;;;7.17;5.33;;;5.50;99.90;;;;;;5092071;28;20191;-60
2021/12/05 06:18:36;;;;;;;6.30;4.97;;;5.50;99.90;;;;;;5066246;28;20540;-59
2021/12/05 06:21:03;;;;;;;6.97;5.93;;;5.50;99.90;;;;;;5069545;28;20703;-60
2021/12/05 06:23:28;;;;;;;8.40;5.70;;;5.50;99.90;;;;;;5074935;28;20512;-60
2021/12/05 06:25:54;;;;;;;8.37;5.33;;;5.60;99.90;;;;;;5065846;28;20196;-60
2021/12/05 06:28:32;;;;;;;8.07;5.50;;;5.60;99.90;;;;;;5057708;28;20191;-61
2021/12/05 06:31:11;;;;;;;6.67;4.97;;;5.60;99.90;;;;;;5071875;28;20230;-61
2021/12/05 06:39:24;;;;;;;6.57;5.87;;;5.60;99.90;;;;;;5056607;28;20205;-60
2021/12/05 06:42:21;;;;;;;5.70;4.63;;;5.80;99.90;;;;;;5063845;28;20176;-60
2021/12/05 06:47:32;;;;;;;6.73;5.53;;;5.70;99.90;;;;;;5068591;28;20209;-60
2021/12/05 06:49:58;;;;;;;7.13;5.30;;;5.60;99.90;;;;;;5082803;28;20279;-59
2021/12/05 06:52:24;;;;;;;6.80;5.20;;;5.60;99.90;;;;;;5074101;28;20196;-60
2021/12/05 06:54:51;;;;;;;7.13;5.33;;;5.60;99.90;;;;;;5066837;28;20591;-61
2021/12/05 06:57:17;;;;;;;10.03;5.50;;;5.60;99.90;;;;;;5092162;28;20184;-60
2021/12/05 06:59:45;;;;;;;7.23;5.20;;;5.60;99.90;;;;;;5074150;28;20169;-63
2021/12/05 07:02:13;;;;;;;10.20;5.63;;;5.80;99.90;;;;;;5085680;28;20187;-61
2021/12/05 07:07:09;;;;;;;9.63;5.73;;;5.70;99.90;;;;;;5088964;28;20284;-61
2021/12/05 07:09:34;;;;;;;7.27;5.90;;;5.80;99.90;;;;;;5054674;28;20201;-61
2021/12/05 07:19:57;;;;;;;13.43;6.10;;;5.80;99.90;;;;;;5056140;28;20192;-61
2021/12/05 07:22:29;;;;;;;7.27;5.53;;;5.80;99.90;;;;;;5084202;28;20180;-60
2021/12/05 07:42:22;;;;;;;8.30;5.60;;;5.50;99.90;;;;;;5096135;28;20292;-61
2021/12/05 07:44:11;;;;;;;10.33;4.83;;;5.60;99.90;;;;;;5068802;28;20193;-60
2021/12/05 07:46:38;;;;;;;7.37;5.57;;;5.80;99.90;;;;;;5077965;28;20181;-61
2021/12/05 07:49:07;;;;;;;10.77;5.47;;;5.70;99.90;;;;;;5075129;28;20637;-61
2021/12/05 07:51:37;;;;;;;8.03;5.30;;;5.70;99.90;;;;;;5089081;28;20203;-61
2021/12/05 07:54:13;;;;;;;7.83;5.20;;;5.70;99.90;;;;;;5066328;28;20177;-61
2021/12/05 07:56:51;;;;;;;7.27;4.90;;;5.70;99.90;;;;;;5061666;28;20187;-61
2021/12/05 08:15:46;;;;;;;10.30;6.40;;;5.60;99.90;;;;;;5088808;28;20295;-62
2021/12/05 08:18:12;;;;;;;10.57;6.27;;;5.50;99.90;;;;;;5077004;28;20238;-63
2021/12/05 08:20:40;;;;;;;8.83;5.97;;;5.40;99.90;;;;;;5088755;28;20235;-62
2021/12/05 08:23:07;;;;;;;16.97;7.53;;;5.40;99.90;;;;;;5089881;28;20290;-62
2021/12/05 08:25:36;;;;;;;12.47;7.97;;;5.40;99.90;;;;;;5089653;28;20250;-64
2021/12/05 08:28:19;;;;;;;17.53;8.83;;;5.70;99.90;;;;;;5094802;28;20181;-64
2021/12/05 08:30:51;;;;;;;11.33;7.37;;;5.70;99.90;;;;;;5072924;28;20181;-64
2021/12/05 08:33:40;;;;;;;13.00;7.67;;;5.80;99.90;;;;;;5068370;28;20657;-64
2021/12/05 09:29:02;;;;;;;10.13;5.47;;;5.80;99.90;;;;;;5041988;28;20661;-63
2021/12/05 09:40:32;;;;;;;11.93;6.67;;;6.00;99.90;;;;;;5075416;28;20265;-63
2021/12/05 09:51:12;;;;;;;13.70;8.07;;;6.30;99.90;;;;;;5087456;28;20249;-62
2021/12/05 10:07:04;;;;;;;14.73;8.47;;;6.40;99.90;;;;;;5086380;28;20257;-62
2021/12/05 10:38:02;;;;;;;13.10;8.10;;;7.30;99.90;;;;;;5089740;28;20192;-64
2021/12/05 10:40:38;;;;;;;12.87;7.57;;;7.40;99.90;;;;;;5087793;28;20181;-64
2021/12/05 10:43:14;;;;;;;12.10;7.40;;;7.50;99.90;;;;;;5087103;28;20185;-63
2021/12/05 10:45:47;;;;;;;9.53;6.73;;;7.50;99.90;;;;;;5081291;28;20260;-62
2021/12/05 10:48:29;;;;;;;12.03;6.67;;;7.50;99.90;;;;;;5082307;28;20210;-65
2021/12/05 10:51:18;;;;;;;14.53;7.30;;;7.60;99.90;;;;;;5086839;28;20185;-61
2021/12/05 10:53:51;;;;;;;11.70;6.70;;;7.50;99.90;;;;;;5091403;28;20220;-64
2021/12/05 10:56:27;;;;;;;8.87;6.50;;;7.60;99.90;;;;;;5070686;28;20263;-63
2021/12/05 10:58:53;;;;;;;11.03;7.17;;;7.50;99.90;;;;;;5088303;28;20181;-64
2021/12/05 11:01:48;;;;;;;10.67;7.20;;;7.40;99.90;;;;;;5084448;28;20177;-64
2021/12/05 11:04:17;;;;;;;9.80;6.30;;;7.30;99.90;;;;;;5073101;28;20184;-65
2021/12/05 11:06:52;;;;;;;10.17;6.67;;;7.30;99.90;;;;;;5093549;28;20640;-63
2021/12/05 11:09:27;;;;;;;10.87;7.50;;;7.40;99.90;;;;;;5088371;28;20195;-64
2021/12/05 11:12:03;;;;;;;9.73;7.17;;;7.50;99.90;;;;;;5074399;28;20200;-65
2021/12/05 11:14:34;;;;;;;10.90;7.23;;;7.60;99.90;;;;;;5091570;28;20694;-64
2021/12/05 11:17:14;;;;;;;11.70;6.93;;;7.60;99.90;;;;;;5077991;28;20175;-65
2021/12/05 11:20:11;;;;;;;7.33;6.60;;;7.80;99.90;;;;;;5076451;28;20590;-64
2021/12/05 11:22:45;;;;;;;11.87;7.30;;;7.70;99.90;;;;;;5079778;28;20216;-64
2021/12/05 11:25:13;;;;;;;10.23;7.10;;;7.70;99.90;;;;;;5085923;28;20660;-64
2021/12/05 11:27:47;;;;;;;7.97;6.00;;;7.70;99.90;;;;;;5076439;28;20184;-64
2021/12/05 11:30:23;;;;;;;10.60;6.00;;;7.60;99.90;;;;;;5083799;28;20184;-63
2021/12/05 11:33:02;;;;;;;9.87;7.37;;;7.60;99.90;;;;;;5096272;28;20192;-64
2021/12/05 11:35:38;;;;;;;13.30;8.40;;;7.50;99.90;;;;;;5062703;28;20181;-65
2021/12/05 11:38:13;;;;;;;14.20;8.23;;;7.60;99.90;;;;;;5094273;28;20180;-64
2021/12/05 11:40:51;;;;;;;13.40;8.83;;;7.60;99.90;;;;;;5077834;28;20220;-63
2021/12/05 11:43:24;;;;;;;10.57;7.23;;;7.70;99.90;;;;;;5087540;28;20195;-65
2021/12/05 11:46:05;;;;;;;10.83;7.30;;;8.00;99.90;;;;;;5089648;28;20212;-63
2021/12/05 11:48:56;;;;;;;12.63;9.17;;;7.90;99.90;;;;;;5093447;28;20684;-63
2021/12/05 11:51:24;;;;;;;10.77;7.40;;;7.70;99.90;;;;;;5092302;28;20188;-63
2021/12/05 11:53:55;;;;;;;11.00;7.27;;;7.60;99.90;;;;;;5076992;28;20189;-64
2021/12/05 11:56:30;;;;;;;10.60;6.37;;;7.50;99.90;;;;;;5094962;28;20173;-63
2021/12/05 11:59:25;;;;;;;10.50;6.30;;;7.60;99.90;;;;;;5095222;28;20233;-64
2021/12/05 12:02:01;;;;;;;9.67;6.80;;;7.60;99.90;;;;;;5088644;28;20177;-65
2021/12/05 12:04:44;;;;;;;11.77;8.17;;;7.70;99.90;;;;;;5076486;28;20183;-64
2021/12/05 12:07:15;;;;;;;12.10;6.60;;;7.80;99.90;;;;;;5095181;28;20272;-63
2021/12/05 12:09:41;;;;;;;12.47;7.20;;;7.90;99.90;;;;;;5086181;28;20208;-63
2021/12/05 12:12:08;;;;;;;10.23;7.73;;;7.80;99.90;;;;;;5064606;28;20697;-65
2021/12/05 12:14:34;;;;;;;7.93;6.70;;;8.00;99.90;;;;;;5068203;28;20188;-63
2021/12/05 12:17:02;;;;;;;10.20;6.90;;;8.00;99.90;;;;;;5092697;28;20180;-64
2021/12/05 12:19:28;;;;;;;12.03;7.23;;;8.00;99.90;;;;;;5075837;28;20207;-63
2021/12/05 12:21:58;;;;;;;10.00;6.87;;;7.90;99.90;;;;;;5076543;28;20614;-64
2021/12/05 12:24:24;;;;;;;9.67;5.77;;;8.00;99.90;;;;;;5076612;28;20227;-64
2021/12/05 12:26:50;;;;;;;8.47;5.43;;;8.00;99.90;;;;;;5087166;28;20188;-65
2021/12/05 12:29:17;;;;;;;7.50;5.70;;;8.00;99.90;;;;;;5092533;28;20199;-64
2021/12/05 12:31:48;;;;;;;9.50;6.13;;;7.90;99.90;;;;;;5077158;28;20201;-64
2021/12/05 12:34:20;;;;;;;10.90;7.47;;;7.90;99.90;;;;;;5088707;28;20178;-64
2021/12/05 12:36:50;;;;;;;15.17;6.67;;;7.90;99.90;;;;;;5075488;28;20239;-64
2021/12/05 12:39:16;;;;;;;10.67;6.50;;;8.00;99.90;;;;;;5083889;28;20538;-64
2021/12/05 12:42:02;;;;;;;11.63;7.03;;;8.00;99.90;;;;;;5075848;28;20192;-65
2021/12/05 12:44:29;;;;;;;11.37;6.73;;;8.00;99.90;;;;;;5072441;28;20327;-64
2021/12/05 12:47:04;;;;;;;11.00;7.17;;;8.00;99.90;;;;;;5075344;28;20264;-64
2021/12/05 12:49:36;;;;;;;10.20;6.40;;;7.90;99.90;;;;;;5072415;28;20498;-65
2021/12/05 12:52:14;;;;;;;9.20;7.30;;;8.00;99.90;;;;;;5093327;28;20200;-66
2021/12/05 12:54:49;;;;;;;10.03;6.30;;;8.00;99.90;;;;;;5094523;28;20690;-65
2021/12/05 12:57:18;;;;;;;8.57;6.73;;;8.00;99.90;;;;;;5093293;28;20286;-66
2021/12/05 12:59:56;;;;;;;8.47;6.87;;;8.10;99.90;;;;;;5087879;28;20211;-65
2021/12/05 13:02:38;;;;;;;11.50;6.73;;;8.30;99.90;;;;;;5091025;28;20180;-65
2021/12/05 13:11:00;;;;;;;9.00;6.30;;;8.00;99.90;;;;;;5090800;28;20591;-67
2021/12/05 13:13:29;;;;;;;7.07;6.00;;;8.10;99.90;;;;;;5087743;28;20189;-64
2021/12/05 13:16:00;;;;;;;8.63;4.50;;;8.20;99.90;;;;;;5086825;28;20224;-68
2021/12/05 13:18:30;;;;;;;7.00;5.63;;;8.20;99.90;;;;;;5066893;28;20178;-64
2021/12/05 13:21:09;;;;;;;9.20;6.50;;;8.10;99.90;;;;;;5093207;28;20177;-61
2021/12/05 13:23:37;;;;;;;11.47;7.00;;;8.00;99.90;;;;;;5086509;28;20711;-61
2021/12/05 13:26:11;;;;;;;9.57;6.47;;;8.00;99.90;;;;;;5068976;28;20176;-61
2021/12/05 13:28:43;;;;;;;10.10;6.37;;;8.10;99.90;;;;;;5072443;28;20192;-62
2021/12/05 13:31:27;;;;;;;10.37;6.90;;;8.20;99.90;;;;;;5081277;28;20220;-62
2021/12/05 13:34:28;;;;;;;9.43;6.83;;;8.20;99.90;;;;;;5094172;28;20494;-63
2021/12/05 13:37:19;;;;;;;8.93;6.53;;;8.20;99.90;;;;;;5076139;28;20192;-62
2021/12/05 13:39:53;;;;;;;9.30;6.20;;;8.20;99.90;;;;;;5083117;28;20259;-61
2021/12/05 13:42:39;;;;;;;7.70;5.93;;;8.10;99.90;;;;;;5086411;28;20172;-61
2021/12/05 13:45:07;;;;;;;7.87;6.27;;;8.00;99.90;;;;;;5091818;28;20183;-62
2021/12/05 13:47:51;;;;;;;11.97;7.87;;;8.10;99.90;;;;;;5068346;28;20242;-60
2021/12/05 13:50:23;;;;;;;9.10;6.80;;;8.20;99.90;;;;;;5059972;28;20173;-61
2021/12/05 13:52:53;;;;;;;12.23;8.30;;;8.30;99.90;;;;;;5075750;28;20204;-61
2021/12/05 13:55:36;;;;;;;11.50;6.73;;;8.40;99.90;;;;;;5087658;28;20177;-61
2021/12/05 13:58:19;;;;;;;13.23;7.83;;;8.30;99.90;;;;;;5089901;28;20162;-61
2021/12/05 14:01:15;;;;;;;14.20;9.53;;;8.30;99.90;;;;;;5084177;28;20629;-61
2021/12/05 14:03:59;;;;;;;10.77;7.03;;;8.40;99.90;;;;;;5055695;28;20271;-61
2021/12/05 14:06:36;;;;;;;11.37;7.33;;;8.30;99.90;;;;;;5069499;28;20176;-62
2021/12/05 14:09:30;;;;;;;11.33;6.93;;;8.40;99.90;;;;;;5073346;28;20283;-61
2021/12/05 14:11:59;;;;;;;9.00;6.93;;;8.40;99.90;;;;;;5085945;28;20188;-61
2021/12/05 14:14:35;;;;;;;12.80;6.93;;;8.40;99.90;;;;;;5087512;28;20257;-61
2021/12/05 14:17:12;;;;;;;7.17;5.77;;;8.30;99.90;;;;;;5085838;28;20183;-61
2021/12/05 14:19:40;;;;;;;6.53;5.83;;;8.30;99.90;;;;;;5092035;28;20168;-61
2021/12/05 14:22:08;;;;;;;11.63;7.03;;;8.20;99.90;;;;;;5091679;28;20199;-61
2021/12/05 14:24:37;;;;;;;9.67;6.17;;;8.30;99.90;;;;;;5064786;28;20528;-61
2021/12/05 14:27:07;;;;;;;8.17;5.63;;;8.30;99.90;;;;;;5092548;28;20594;-61
2021/12/05 14:29:35;;;;;;;6.60;5.10;;;8.30;99.90;;;;;;5092016;28;20188;-61
2021/12/05 14:32:20;;;;;;;10.20;6.17;;;8.20;99.90;;;;;;5074979;28;20254;-62
2021/12/05 14:34:47;;;;;;;10.23;6.73;;;8.10;99.90;;;;;;5085049;28;20211;-61
2021/12/05 14:37:19;;;;;;;7.93;6.17;;;8.10;99.90;;;;;;5074169;28;20237;-61
2021/12/05 14:39:50;;;;;;;8.73;6.43;;;8.10;99.90;;;;;;5089394;28;20220;-61
2021/12/05 14:42:25;;;;;;;6.30;5.33;;;8.10;99.90;;;;;;5082178;28;20177;-62
2021/12/05 14:44:58;;;;;;;5.87;5.27;;;8.10;99.90;;;;;;5087401;28;20184;-65
2021/12/05 14:47:27;;;;;;;6.57;5.03;;;8.10;99.90;;;;;;5072874;28;20620;-61
2021/12/05 14:49:56;;;;;;;5.43;4.43;;;8.00;99.90;;;;;;5086187;28;20211;-62
2021/12/05 14:52:26;;;;;;;8.57;5.33;;;8.00;99.90;;;;;;5074558;28;20265;-61
2021/12/05 14:54:53;;;;;;;8.43;4.90;;;8.00;99.90;;;;;;5092731;28;20185;-62
2021/12/05 14:57:21;;;;;;;6.33;5.50;;;8.00;99.90;;;;;;5074256;28;20185;-62
2021/12/05 14:59:50;;;;;;;7.10;5.67;;;8.10;99.90;;;;;;5088970;28;20188;-61
2021/12/05 15:02:17;;;;;;;8.40;5.57;;;8.00;99.90;;;;;;5083149;28;20210;-61
2021/12/05 15:04:47;;;;;;;8.90;6.40;;;8.00;99.90;;;;;;5073844;28;20199;-61
2021/12/05 15:07:13;;;;;;;8.07;6.27;;;7.90;99.90;;;;;;5090167;28;22206;-62
2021/12/05 15:09:45;;;;;;;10.07;5.50;;;8.00;99.90;;;;;;5074406;28;20200;-62
2021/12/05 15:12:16;;;;;;;7.30;5.67;;;8.00;99.90;;;;;;5091740;28;20242;-62
2021/12/05 15:14:44;;;;;;;12.27;7.70;;;7.90;99.90;;;;;;5074380;28;20188;-62
2021/12/05 15:17:14;;;;;;;7.83;6.63;;;7.70;99.90;;;;;;5090766;28;20625;-62
2021/12/05 15:19:43;;;;;;;8.70;6.23;;;7.70;99.90;;;;;;5089528;28;20299;-61
2021/12/05 15:22:12;;;;;;;9.93;6.93;;;7.70;99.90;;;;;;5082105;28;20176;-61
2021/12/05 15:24:38;;;;;;;12.00;7.67;;;7.80;99.90;;;;;;5072846;28;20268;-61
2021/12/05 15:27:12;;;;;;;11.70;7.70;;;7.80;99.90;;;;;;5092194;28;20527;-61
2021/12/05 15:29:38;;;;;;;9.10;6.63;;;7.70;99.90;;;;;;5092261;28;20629;-62
2021/12/05 15:32:04;;;;;;;11.63;7.63;;;7.70;99.90;;;;;;5080072;28;20213;-61
2021/12/05 15:34:35;;;;;;;8.23;6.77;;;7.70;99.90;;;;;;5091604;28;20279;-62
2021/12/05 15:37:09;;;;;;;11.67;6.93;;;7.70;99.90;;;;;;5072623;28;20181;-61
2021/12/05 15:39:37;;;;;;;10.00;7.27;;;7.50;99.90;;;;;;5085311;28;20185;-62
2021/12/05 15:42:14;;;;;;;9.33;6.43;;;7.50;99.90;;;;;;5081043;28;20284;-62
2021/12/05 15:44:40;;;;;;;8.67;6.93;;;7.40;99.90;;;;;;5085702;28;20504;-62
2021/12/05 15:47:10;;;;;;;9.77;7.13;;;7.40;99.90;;;;;;5070063;28;20192;-61
2021/12/05 15:49:50;;;;;;;11.27;7.30;;;7.40;99.90;;;;;;5082826;28;20325;-60
2021/12/05 15:52:17;;;;;;;13.17;8.80;;;7.40;99.90;;;;;;5087192;28;20208;-64
2021/12/05 15:54:44;;;;;;;14.90;9.67;;;7.50;99.90;;;;;;5076131;28;20200;-63
2021/12/05 15:57:21;;;;;;;16.73;9.80;;;7.40;99.90;;;;;;5069518;28;20577;-62
2021/12/05 15:59:47;;;;;;;16.70;12.47;;;7.30;99.90;;;;;;5071710;28;20184;-61
2021/12/05 16:02:18;;;;;;;15.53;11.87;;;7.60;99.90;;;;;;5076687;28;20228;-61
2021/12/05 16:04:45;;;;;;;16.33;10.80;;;7.70;99.90;;;;;;5093299;28;20185;-61
2021/12/05 16:07:11;;;;;;;16.00;11.00;;;7.90;99.90;;;;;;5075006;28;20224;-61
2021/12/05 16:09:39;;;;;;;16.40;11.47;;;7.60;99.90;;;;;;5073808;28;20193;-61
2021/12/05 16:12:09;;;;;;;26.87;14.60;;;7.50;99.90;;;;;;5086991;28;20705;-61
2021/12/05 16:14:38;;;;;;;21.27;12.97;;;7.60;99.90;;;;;;5068228;28;20518;-61
2021/12/05 16:17:19;;;;;;;22.43;13.67;;;7.90;99.90;;;;;;5072130;28;20188;-61
2021/12/05 16:20:10;;;;;;;26.40;14.77;;;7.60;99.90;;;;;;5074947;28;20180;-61
2021/12/05 16:22:57;;;;;;;21.87;14.17;;;7.40;99.90;;;;;;5076737;28;20678;-61
2021/12/05 16:25:23;;;;;;;30.07;14.00;;;7.40;99.90;;;;;;5061944;28;20188;-61
2021/12/05 16:27:54;;;;;;;19.70;12.30;;;7.20;99.90;;;;;;5085768;28;20231;-62
2021/12/05 16:30:22;;;;;;;24.17;13.37;;;7.20;99.90;;;;;;5076756;28;20198;-61
2021/12/05 16:32:49;;;;;;;20.53;12.00;;;7.10;99.90;;;;;;5094208;28;20215;-61
2021/12/05 16:35:53;;;;;;;19.50;13.57;;;7.10;99.90;;;;;;5094020;28;20185;-63
2021/12/05 16:38:27;;;;;;;24.87;15.00;;;6.90;99.90;;;;;;5077562;28;20228;-62
2021/12/05 16:41:13;;;;;;;27.47;15.23;;;6.60;99.90;;;;;;5079962;28;20181;-62
2021/12/05 16:43:49;;;;;;;19.67;13.77;;;6.70;99.90;;;;;;5060002;28;20186;-61
2021/12/05 16:46:22;;;;;;;20.57;12.43;;;6.60;99.90;;;;;;5073548;28;20195;-61
2021/12/05 16:48:49;;;;;;;21.83;12.33;;;6.70;99.90;;;;;;5062967;28;20184;-62
2021/12/05 16:51:25;;;;;;;19.47;12.67;;;6.90;99.90;;;;;;5076705;28;20192;-62
2021/12/05 16:53:58;;;;;;;24.60;14.47;;;6.70;99.90;;;;;;5062715;28;20241;-62
2021/12/05 16:56:48;;;;;;;23.13;12.90;;;6.60;99.90;;;;;;5094668;28;20204;-61
2021/12/05 16:59:52;;;;;;;17.00;12.57;;;6.60;99.90;;;;;;5081842;28;20647;-62
2021/12/05 17:02:27;;;;;;;18.03;11.93;;;6.60;99.90;;;;;;5041605;28;20199;-61
2021/12/05 17:05:13;;;;;;;19.53;12.43;;;6.50;99.90;;;;;;5067732;28;20551;-61
2021/12/05 17:08:12;;;;;;;19.00;12.60;;;6.50;99.90;;;;;;5075250;28;20177;-63
2021/12/05 17:10:43;;;;;;;22.90;13.27;;;6.60;99.90;;;;;;5072622;28;20289;-61
2021/12/05 17:13:20;;;;;;;24.57;16.23;;;6.60;99.90;;;;;;5073553;28;20214;-61
2021/12/05 17:16:00;;;;;;;20.40;14.23;;;6.60;99.90;;;;;;5070814;28;20195;-61
2021/12/05 17:18:37;;;;;;;21.20;13.37;;;6.80;99.90;;;;;;5093475;28;20173;-62
2021/12/05 17:21:02;;;;;;;23.60;14.97;;;6.70;99.90;;;;;;5071027;28;20279;-61
2021/12/05 17:23:41;;;;;;;22.20;15.00;;;6.60;99.90;;;;;;5075816;28;20268;-61
2021/12/05 17:26:30;;;;;;;22.67;14.30;;;6.70;99.90;;;;;;5079117;28;20181;-61
2021/12/05 17:29:12;;;;;;;20.60;13.83;;;6.70;99.90;;;;;;5075645;28;20198;-62
2021/12/05 17:31:55;;;;;;;18.87;13.93;;;6.60;99.90;;;;;;5088077;28;20629;-60
2021/12/05 17:34:31;;;;;;;19.43;14.33;;;6.50;99.90;;;;;;5093992;28;20263;-61
2021/12/05 17:37:01;;;;;;;19.53;13.40;;;6.40;99.90;;;;;;5090452;28;20180;-62
2021/12/05 17:39:32;;;;;;;27.00;16.97;;;6.30;99.90;;;;;;5093716;28;20191;-62
2021/12/05 17:42:07;;;;;;;29.07;16.33;;;6.40;99.90;;;;;;5090388;28;20193;-62
2021/12/05 17:44:33;;;;;;;21.70;14.93;;;6.50;99.90;;;;;;5093516;28;20267;-62
2021/12/05 17:47:03;;;;;;;24.27;14.57;;;6.60;99.90;;;;;;5083153;28;20181;-62
2021/12/05 17:49:31;;;;;;;20.70;13.30;;;6.60;99.90;;;;;;5065828;28;20191;-61
2021/12/05 17:51:59;;;;;;;23.43;14.87;;;6.40;99.90;;;;;;5089816;28;20196;-62
2021/12/05 17:54:41;;;;;;;22.77;14.13;;;6.50;99.90;;;;;;5092216;28;20280;-62
2021/12/05 17:57:17;;;;;;;20.17;15.70;;;6.70;99.90;;;;;;5072409;28;20263;-61
2021/12/05 18:02:47;;;;;;;24.73;16.77;;;7.00;99.90;;;;;;5093092;28;20195;-61
2021/12/05 18:05:30;;;;;;;20.77;13.73;;;7.00;99.90;;;;;;5084683;28;20177;-62
2021/12/05 18:08:00;;;;;;;19.87;14.47;;;7.20;99.90;;;;;;5087399;28;20552;-61
2021/12/05 18:10:29;;;;;;;24.93;14.03;;;7.00;99.90;;;;;;5082725;28;20211;-61
2021/12/05 18:12:58;;;;;;;20.53;14.77;;;7.00;99.90;;;;;;5067210;28;20535;-61
2021/12/05 18:15:28;;;;;;;21.50;14.17;;;6.80;99.90;;;;;;5075779;28;20188;-61
2021/12/05 18:17:56;;;;;;;25.87;15.77;;;6.60;99.90;;;;;;5072442;28;20605;-61
2021/12/05 18:20:25;;;;;;;29.63;15.57;;;6.50;99.90;;;;;;5078298;28;20182;-61
2021/12/05 18:22:57;;;;;;;22.13;15.07;;;6.60;99.90;;;;;;5054985;28;20200;-61
2021/12/05 18:25:23;;;;;;;22.10;15.57;;;6.60;99.90;;;;;;5079912;28;20183;-61
2021/12/05 18:27:49;;;;;;;19.80;15.17;;;6.60;99.90;;;;;;5069015;28;20191;-61
2021/12/05 18:30:18;;;;;;;19.97;15.50;;;6.50;99.90;;;;;;5073993;28;20267;-61
2021/12/05 18:32:44;;;;;;;25.40;15.90;;;6.50;99.90;;;;;;5091024;28;20287;-61
2021/12/05 18:35:11;;;;;;;22.27;15.80;;;6.50;99.90;;;;;;5084482;28;20184;-61
2021/12/05 18:37:38;;;;;;;21.53;17.43;;;6.70;99.90;;;;;;5093277;28;20224;-62
2021/12/05 18:40:05;;;;;;;26.87;16.80;;;6.80;99.90;;;;;;5069965;28;20207;-61
2021/12/05 18:42:31;;;;;;;23.83;18.00;;;6.70;99.90;;;;;;5062834;28;20189;-61